Time;durP1;ratioP1;P1;durP2;ratioP2;P2;SDS_P1;SDS_P2;PMS_P1;PMS_P2;Temp;Humidity;BMP_temperature;BMP_pressure;BME280_temperature;BME280_humidity;BME280_pressure;Samples;Min_cycle;Max_cycle;Signal;HPM_P1;HPM_P2
2021/08/24 00:00:26;;;;;;;9.15;4.55;;;;;;;14.90;81.18;101426.69;5059970;28;20369;-73
2021/08/24 00:02:51;;;;;;;7.25;4.90;;;;;;;14.86;80.70;101427.59;5080110;28;20380;-73
2021/08/24 00:05:34;;;;;;;7.70;4.90;;;;;;;14.82;80.91;101421.78;5076740;28;20020;-73
2021/08/24 00:08:00;;;;;;;10.68;5.20;;;;;;;14.73;81.59;101432.78;5076015;28;20047;-73
2021/08/24 00:10:55;;;;;;;12.38;6.25;;;;;;;14.70;81.99;101426.97;5049984;28;20443;-73
2021/08/24 00:13:21;;;;;;;12.60;5.25;;;;;;;14.65;82.30;101433.44;5091539;28;20089;-73
2021/08/24 00:15:47;;;;;;;11.27;6.47;;;;;;;14.65;84.01;101418.66;5090209;28;20471;-73
2021/08/24 00:18:13;;;;;;;16.35;7.40;;;;;;;14.53;85.96;101416.28;5066785;28;20134;-73
2021/08/24 00:20:39;;;;;;;16.20;7.00;;;;;;;14.50;85.99;101419.66;5041553;28;20185;-73
2021/08/24 00:23:08;;;;;;;12.93;6.75;;;;;;;14.47;85.01;101414.66;5082767;28;20031;-73
2021/08/24 00:25:33;;;;;;;13.77;6.20;;;;;;;14.52;85.00;101423.84;5080546;28;20020;-73
2021/08/24 00:27:59;;;;;;;10.50;5.88;;;;;;;14.49;84.33;101418.00;5085070;28;20506;-73
2021/08/24 00:30:24;;;;;;;11.25;5.72;;;;;;;14.48;83.54;101419.94;5064461;28;20446;-73
2021/08/24 00:32:50;;;;;;;9.85;5.75;;;;;;;14.53;83.47;101417.13;5082054;28;20434;-73
2021/08/24 00:35:15;;;;;;;15.35;6.30;;;;;;;14.52;84.56;101421.06;5080832;28;20035;-73
2021/08/24 00:37:41;;;;;;;14.23;6.45;;;;;;;14.52;84.24;101409.03;5060902;28;20033;-73
2021/08/24 00:40:07;;;;;;;10.65;5.93;;;;;;;14.51;83.45;101415.72;5061492;28;20035;-73
2021/08/24 00:42:33;;;;;;;9.38;5.85;;;;;;;14.51;83.81;101418.50;5059324;28;20031;-73
2021/08/24 00:44:58;;;;;;;12.52;6.88;;;;;;;14.48;84.77;101407.94;5079616;28;20024;-73
2021/08/24 00:47:26;;;;;;;11.35;5.85;;;;;;;14.48;84.05;101416.31;5076280;28;20024;-73
2021/08/24 00:49:52;;;;;;;10.75;6.22;;;;;;;14.44;85.20;101415.25;5066638;28;20039;-73
2021/08/24 00:52:19;;;;;;;11.27;5.47;;;;;;;14.44;84.37;101404.91;5059567;28;20041;-73
2021/08/24 00:54:44;;;;;;;11.38;5.57;;;;;;;14.43;84.28;101402.41;5045956;28;20032;-73
2021/08/24 00:57:16;;;;;;;8.93;5.60;;;;;;;14.41;83.68;101405.50;5077954;28;20121;-73
2021/08/24 00:59:41;;;;;;;11.73;6.07;;;;;;;14.38;84.37;101406.09;5061446;28;20028;-73
2021/08/24 01:02:08;;;;;;;16.58;6.65;;;;;;;14.34;84.24;101401.41;5063485;28;20440;-73
2021/08/24 01:04:33;;;;;;;11.43;5.50;;;;;;;14.30;84.76;101404.78;5057708;28;20027;-73
2021/08/24 01:07:11;;;;;;;13.88;6.60;;;;;;;14.31;85.04;101402.81;5079729;28;20020;-73
2021/08/24 01:10:02;;;;;;;13.27;7.25;;;;;;;14.28;84.06;101403.44;5080478;28;20488;-73
2021/08/24 01:13:05;;;;;;;12.73;6.63;;;;;;;14.27;84.51;101404.56;5103912;27;20094;-73
2021/08/24 01:15:42;;;;;;;10.68;6.05;;;;;;;14.30;85.35;101398.38;5100843;28;20384;-73
2021/08/24 01:18:11;;;;;;;12.30;5.97;;;;;;;14.30;84.08;101395.59;5088918;27;20031;-73
2021/08/24 01:21:11;;;;;;;12.07;6.15;;;;;;;14.26;83.82;101395.34;5092896;28;20081;-73
2021/08/24 01:23:50;;;;;;;15.45;8.02;;;;;;;14.23;86.64;101392.31;5088361;28;20058;-73
2021/08/24 01:26:26;;;;;;;15.57;8.02;;;;;;;14.18;87.43;101395.16;5078386;27;20485;-73
2021/08/24 01:29:17;;;;;;;15.18;6.43;;;;;;;14.20;85.31;101387.31;5087520;27;20027;-73
2021/08/24 01:31:58;;;;;;;10.93;5.55;;;;;;;14.24;84.31;101388.41;5108749;28;20035;-73
2021/08/24 01:34:43;;;;;;;11.70;6.10;;;;;;;14.20;84.46;101384.53;5096679;27;20047;-73
2021/08/24 01:37:19;;;;;;;15.57;5.80;;;;;;;14.17;84.02;101379.53;5063872;28;20671;-73
2021/08/24 01:39:50;;;;;;;16.63;7.85;;;;;;;14.09;87.53;101375.41;5092626;27;20030;-73
2021/08/24 01:42:20;;;;;;;15.13;7.75;;;;;;;14.06;87.42;101382.44;5092042;27;20046;-73
2021/08/24 01:45:14;;;;;;;18.98;9.13;;;;;;;14.00;89.09;101382.78;5080303;28;20143;-73
2021/08/24 01:47:53;;;;;;;15.55;8.43;;;;;;;13.98;88.31;101385.88;5114413;27;20038;-73
2021/08/24 01:50:33;;;;;;;16.35;7.40;;;;;;;13.97;87.80;101384.22;5067989;27;20057;-73
2021/08/24 01:53:05;;;;;;;11.32;6.80;;;;;;;14.01;85.65;101379.72;5082837;28;20047;-73
2021/08/24 01:55:32;;;;;;;12.70;5.80;;;;;;;14.01;85.61;101374.13;5059767;28;20028;-73
2021/08/24 01:58:26;;;;;;;16.50;9.38;;;;;;;13.94;89.07;101381.19;5076355;28;20030;-73
2021/08/24 02:00:54;;;;;;;13.25;8.68;;;;;;;13.95;88.21;101380.06;5064699;28;20044;-73
2021/08/24 02:03:32;;;;;;;12.48;6.20;;;;;;;13.96;85.53;101387.31;5047374;28;20081;-73
2021/08/24 02:06:24;;;;;;;15.23;7.57;;;;;;;13.96;86.29;101382.56;5074274;28;20080;-73
2021/08/24 02:08:51;;;;;;;15.77;7.80;;;;;;;13.93;87.69;101380.38;5065614;28;20028;-73
2021/08/24 02:11:17;;;;;;;12.73;7.63;;;;;;;13.96;86.19;101388.16;5070007;28;20107;-73
2021/08/24 02:13:46;;;;;;;16.75;9.43;;;;;;;13.86;89.43;101388.25;5079811;28;20040;-73
2021/08/24 02:16:14;;;;;;;8.98;6.25;;;;;;;13.88;85.93;101382.38;5096540;28;20031;-73
2021/08/24 02:18:41;;;;;;;14.07;7.38;;;;;;;13.87;86.88;101381.53;5084893;28;20040;-73
2021/08/24 02:21:13;;;;;;;10.90;6.47;;;;;;;13.91;86.08;101387.38;5084124;28;20030;-73
2021/08/24 02:23:38;;;;;;;11.00;6.83;;;;;;;13.91;86.76;101388.19;5073935;28;20043;-73
2021/08/24 02:26:06;;;;;;;10.45;6.28;;;;;;;13.91;86.62;101385.41;5046790;28;20467;-73
2021/08/24 02:28:40;;;;;;;11.32;6.50;;;;;;;13.94;85.88;101386.78;5083299;28;20515;-73
2021/08/24 02:31:13;;;;;;;13.68;6.95;;;;;;;13.96;84.91;101390.94;5081220;28;20115;-73
2021/08/24 02:33:53;;;;;;;11.02;5.63;;;;;;;13.97;84.92;101380.59;5083210;28;20433;-73
2021/08/24 02:36:18;;;;;;;8.85;5.68;;;;;;;13.93;84.93;101383.16;5074636;28;20050;-73
2021/08/24 02:38:48;;;;;;;14.13;8.65;;;;;;;13.85;87.24;101375.41;5066732;28;20372;-73
2021/08/24 02:41:18;;;;;;;9.30;7.65;;;;;;;13.82;87.26;101367.63;5062340;28;20063;-73
2021/08/24 02:43:56;;;;;;;13.55;7.60;;;;;;;13.79;87.26;101362.63;5062703;28;20387;-73
2021/08/24 02:46:35;;;;;;;13.77;7.75;;;;;;;13.77;86.07;101362.09;5093304;28;20449;-73
2021/08/24 02:49:05;;;;;;;14.85;8.00;;;;;;;13.79;86.92;101376.56;5051873;28;20119;-73
2021/08/24 02:51:30;;;;;;;11.10;6.60;;;;;;;13.76;86.30;101371.59;5096177;27;20098;-73
2021/08/24 02:54:08;;;;;;;12.38;6.90;;;;;;;13.80;86.23;101375.47;5084431;27;20579;-73
2021/08/24 02:56:34;;;;;;;14.82;8.88;;;;;;;13.78;87.43;101369.34;5125899;27;20038;-73
2021/08/24 02:58:59;;;;;;;11.27;6.68;;;;;;;13.77;86.05;101370.47;5091046;27;20023;-73
2021/08/24 03:01:25;;;;;;;12.60;8.27;;;;;;;13.75;87.42;101367.97;5069122;27;20022;-73
2021/08/24 03:03:50;;;;;;;14.10;7.80;;;;;;;13.73;86.13;101367.41;5086546;28;20034;-73
2021/08/24 03:06:16;;;;;;;12.38;7.22;;;;;;;13.74;85.45;101368.28;5088194;27;20360;-73
2021/08/24 03:08:41;;;;;;;14.48;9.18;;;;;;;13.73;85.65;101361.84;5103816;27;20033;-73
2021/08/24 03:11:07;;;;;;;17.50;10.57;;;;;;;13.66;88.21;101358.56;5087455;27;20050;-73
2021/08/24 03:13:49;;;;;;;16.25;11.85;;;;;;;13.57;90.82;101352.81;5089983;27;20031;-73
2021/08/24 03:16:30;;;;;;;17.95;11.77;;;;;;;13.51;91.21;101348.41;5108626;27;20033;-73
2021/08/24 03:18:57;;;;;;;19.42;12.18;;;;;;;13.45;91.60;101349.56;5101757;27;20037;-73
2021/08/24 03:21:26;;;;;;;20.13;11.90;;;;;;;13.38;91.53;101361.06;5104783;28;20039;-73
2021/08/24 03:23:52;;;;;;;24.55;13.07;;;;;;;13.38;92.47;101352.69;5102043;28;20171;-73
2021/08/24 03:26:25;;;;;;;22.17;11.95;;;;;;;13.35;91.28;101356.06;5090182;27;20032;-73
2021/08/24 03:28:51;;;;;;;18.88;11.30;;;;;;;13.37;90.74;101355.75;5101429;28;20019;-73
2021/08/24 03:31:17;;;;;;;21.30;12.55;;;;;;;13.36;91.91;101362.47;5101051;28;20102;-73
2021/08/24 03:33:42;;;;;;;18.65;12.55;;;;;;;13.31;92.81;101360.56;5097045;27;20018;-73
2021/08/24 03:36:08;;;;;;;24.13;13.38;;;;;;;13.28;92.48;101357.53;5085894;28;20509;-73
2021/08/24 03:38:34;;;;;;;22.70;13.00;;;;;;;13.26;93.71;101362.56;5098274;27;20030;-73
2021/08/24 03:41:06;;;;;;;17.63;12.23;;;;;;;13.27;92.88;101355.88;5084980;28;20040;-73
2021/08/24 03:43:32;;;;;;;16.38;10.77;;;;;;;13.27;90.93;101362.28;5107058;27;20035;-73
2021/08/24 03:45:57;;;;;;;11.85;9.52;;;;;;;13.31;90.05;101359.72;5112541;27;20479;-73
2021/08/24 03:48:23;;;;;;;16.15;10.70;;;;;;;13.33;90.75;101363.88;5096046;27;20030;-73
2021/08/24 03:50:48;;;;;;;16.40;10.93;;;;;;;13.36;90.99;101359.69;5094333;27;20024;-74
2021/08/24 03:53:13;;;;;;;16.00;8.52;;;;;;;13.40;88.78;101358.00;5112738;27;20043;-73
2021/08/24 03:55:39;;;;;;;18.40;10.25;;;;;;;13.40;88.85;101352.41;5088423;27;20027;-73
2021/08/24 03:58:05;;;;;;;15.95;9.95;;;;;;;13.39;88.88;101345.16;5096688;27;20027;-73
2021/08/24 04:00:31;;;;;;;21.02;13.02;;;;;;;13.37;90.89;101347.38;5089299;27;20551;-73
2021/08/24 04:02:57;;;;;;;18.85;13.10;;;;;;;13.36;92.52;101340.97;5088088;27;20019;-73
2021/08/24 04:05:22;;;;;;;20.00;12.82;;;;;;;13.31;92.36;101343.81;5088088;27;20026;-73
2021/08/24 04:07:48;;;;;;;21.95;13.75;;;;;;;13.31;94.15;101349.41;5075406;28;20031;-73
2021/08/24 04:10:14;;;;;;;22.90;13.55;;;;;;;13.35;94.81;101335.72;5104768;27;20084;-73
2021/08/24 04:12:39;;;;;;;23.55;15.07;;;;;;;13.33;95.33;101344.38;5080413;27;20114;-73
2021/08/24 04:15:06;;;;;;;18.52;13.20;;;;;;;13.35;95.49;101347.69;5084353;28;20035;-73
2021/08/24 04:17:36;;;;;;;21.23;14.15;;;;;;;13.37;94.73;101341.81;5107108;27;20030;-73
2021/08/24 04:20:03;;;;;;;23.38;13.50;;;;;;;13.39;94.14;101334.81;5134435;27;20612;-73
2021/08/24 04:22:29;;;;;;;23.23;13.45;;;;;;;13.42;95.66;101341.78;5099559;28;20027;-73
2021/08/24 04:24:54;;;;;;;21.58;14.52;;;;;;;13.44;95.29;101336.75;5086793;27;20034;-73
2021/08/24 04:27:20;;;;;;;24.02;14.73;;;;;;;13.45;96.01;101338.38;5101975;27;20034;-73
2021/08/24 04:29:45;;;;;;;22.23;13.77;;;;;;;13.44;96.60;101336.75;5082384;28;20031;-73
2021/08/24 04:32:12;;;;;;;19.98;13.63;;;;;;;13.46;95.86;101334.50;5070243;27;20360;-73
2021/08/24 04:34:37;;;;;;;20.02;12.55;;;;;;;13.51;94.29;101339.16;5107390;27;20027;-73
2021/08/24 04:37:03;;;;;;;19.45;12.55;;;;;;;13.52;94.30;101338.91;5097158;28;20092;-73
2021/08/24 04:39:28;;;;;;;23.90;14.23;;;;;;;13.49;94.72;101345.06;5088935;27;20019;-73
2021/08/24 04:41:54;;;;;;;21.80;13.35;;;;;;;13.48;94.72;101348.13;5107938;27;20095;-73
2021/08/24 04:44:19;;;;;;;20.83;13.98;;;;;;;13.51;94.47;101340.03;5098796;28;20088;-73
2021/08/24 04:46:45;;;;;;;17.52;11.90;;;;;;;13.48;93.19;101353.72;5070455;27;20535;-73
2021/08/24 04:49:10;;;;;;;21.52;14.65;;;;;;;13.41;95.97;101352.09;5073639;27;20030;-73
2021/08/24 04:51:36;;;;;;;16.42;11.73;;;;;;;13.44;93.67;101353.47;5095684;28;20044;-73
2021/08/24 04:54:01;;;;;;;16.63;10.82;;;;;;;13.51;92.07;101345.63;5050312;28;20028;-73
2021/08/24 04:56:26;;;;;;;21.05;11.43;;;;;;;13.56;91.73;101353.91;5078772;28;20035;-73
2021/08/24 04:58:52;;;;;;;18.73;12.20;;;;;;;13.54;92.29;101356.19;5105127;28;20026;-73
2021/08/24 05:01:18;;;;;;;18.63;10.95;;;;;;;13.56;91.47;101355.88;5051977;28;20086;-73
2021/08/24 05:03:43;;;;;;;15.65;11.15;;;;;;;13.54;92.25;101353.41;5072697;28;20055;-73
2021/08/24 05:06:09;;;;;;;23.30;15.32;;;;;;;13.53;94.37;101356.47;5077421;28;20037;-73
2021/08/24 05:08:34;;;;;;;18.15;11.82;;;;;;;13.49;93.71;101356.22;5081080;28;20027;-73
2021/08/24 05:11:00;;;;;;;23.55;15.48;;;;;;;13.48;95.12;101362.91;5108702;28;20028;-73
2021/08/24 05:13:25;;;;;;;21.70;14.70;;;;;;;13.46;94.82;101361.56;5093509;28;20040;-73
2021/08/24 05:15:51;;;;;;;21.70;15.13;;;;;;;13.43;95.68;101362.13;5099754;28;20035;-73
2021/08/24 05:18:16;;;;;;;24.20;15.70;;;;;;;13.43;94.75;101360.19;5115772;27;20036;-73
2021/08/24 05:20:42;;;;;;;19.58;13.25;;;;;;;13.44;93.67;101364.63;5085019;28;20023;-73
2021/08/24 05:23:07;;;;;;;25.15;15.80;;;;;;;13.42;95.41;101358.50;5061586;28;20024;-73
2021/08/24 05:25:33;;;;;;;23.50;15.80;;;;;;;13.43;94.99;101345.38;5069181;28;20027;-73
2021/08/24 05:27:58;;;;;;;19.65;14.45;;;;;;;13.45;94.98;101348.72;5094800;28;20058;-73
2021/08/24 05:30:24;;;;;;;19.42;14.38;;;;;;;13.43;94.79;101354.63;5081718;28;20032;-73
2021/08/24 05:32:51;;;;;;;26.20;15.05;;;;;;;13.40;94.98;101356.03;5083388;28;20058;-73
2021/08/24 05:35:16;;;;;;;22.02;17.05;;;;;;;13.41;96.24;101354.06;5096178;28;20024;-73
2021/08/24 05:37:42;;;;;;;17.08;11.60;;;;;;;13.44;92.53;101358.22;5078792;28;20040;-73
2021/08/24 05:40:08;;;;;;;21.95;15.50;;;;;;;13.44;94.58;101359.06;5111256;28;20032;-73
2021/08/24 05:42:34;;;;;;;22.17;14.25;;;;;;;13.45;93.50;101360.72;5102645;28;20033;-73
2021/08/24 05:44:59;;;;;;;23.27;14.13;;;;;;;13.49;93.97;101359.03;5094789;28;20032;-73
2021/08/24 05:47:28;;;;;;;18.40;12.43;;;;;;;13.49;93.67;101360.97;5104689;28;20035;-73
2021/08/24 05:49:53;;;;;;;21.05;15.63;;;;;;;13.51;94.88;101365.16;5081979;28;20035;-69
2021/08/24 05:52:19;;;;;;;21.40;14.93;;;;;;;13.56;94.52;101362.28;5064059;28;20044;-68
2021/08/24 05:54:49;;;;;;;26.35;16.13;;;;;;;13.63;95.16;101368.38;5096702;28;20031;-70
2021/08/24 05:57:19;;;;;;;15.65;12.48;;;;;;;13.73;92.52;101363.81;5080301;28;20035;-70
2021/08/24 05:59:44;;;;;;;19.77;13.70;;;;;;;13.80;93.03;101367.09;5093431;28;20028;-70
2021/08/24 06:02:10;;;;;;;25.85;16.75;;;;;;;13.82;94.46;101362.88;5098003;28;20036;-70
2021/08/24 06:04:35;;;;;;;19.38;14.52;;;;;;;13.87;92.95;101367.56;5110403;28;20059;-70
2021/08/24 06:07:01;;;;;;;16.90;13.15;;;;;;;13.96;92.27;101368.59;5091484;28;21326;-71
2021/08/24 06:09:27;;;;;;;28.17;18.40;;;;;;;13.97;94.83;101363.84;5098779;28;20126;-72
2021/08/24 06:11:52;;;;;;;24.90;19.02;;;;;;;13.96;96.43;101360.22;5107957;28;20043;-70
2021/08/24 06:14:21;;;;;;;32.58;23.23;;;;;;;13.94;97.71;101354.09;5100906;28;20035;-70
2021/08/24 06:16:54;;;;;;;32.03;22.27;;;;;;;13.97;97.72;101356.28;5095734;28;20028;-70
2021/08/24 06:19:19;;;;;;;23.83;18.80;;;;;;;14.00;97.03;101354.88;5105557;28;20039;-70
2021/08/24 06:21:45;;;;;;;30.30;21.10;;;;;;;14.00;97.93;101357.66;5099300;28;20032;-70
2021/08/24 06:24:10;;;;;;;35.38;23.15;;;;;;;14.00;99.47;101360.44;5113413;28;20035;-70
2021/08/24 06:26:36;;;;;;;35.63;24.10;;;;;;;14.04;99.24;101362.38;5100612;27;20029;-70
2021/08/24 06:29:02;;;;;;;41.28;26.83;;;;;;;14.06;100.00;101362.88;5073863;28;20114;-70
2021/08/24 06:31:28;;;;;;;41.63;27.95;;;;;;;14.09;100.00;101365.06;5109481;28;20103;-70
2021/08/24 06:33:53;;;;;;;40.63;26.95;;;;;;;14.12;100.00;101368.41;5096028;28;20047;-74
2021/08/24 06:36:19;;;;;;;39.00;25.80;;;;;;;14.15;100.00;101371.47;5084025;28;20058;-74
2021/08/24 06:38:45;;;;;;;37.85;28.00;;;;;;;14.19;100.00;101366.09;5046017;28;20032;-74
2021/08/24 06:41:12;;;;;;;38.88;26.15;;;;;;;14.21;100.00;101367.47;5078815;28;20035;-73
2021/08/24 06:43:38;;;;;;;40.95;26.67;;;;;;;14.26;100.00;101353.44;5088042;28;20072;-73
2021/08/24 06:46:04;;;;;;;40.22;27.50;;;;;;;14.28;100.00;101373.53;5078052;28;20024;-74
2021/08/24 06:48:30;;;;;;;39.63;28.73;;;;;;;14.29;100.00;101368.75;5081368;28;20442;-73
2021/08/24 06:50:55;;;;;;;43.38;27.98;;;;;;;14.34;100.00;101367.88;5084477;28;20027;-73
2021/08/24 06:53:21;;;;;;;39.13;27.48;;;;;;;14.36;100.00;101363.66;5083701;28;20047;-73
2021/08/24 06:55:46;;;;;;;37.70;26.65;;;;;;;14.38;100.00;101367.00;5096464;28;20024;-69
2021/08/24 06:58:13;;;;;;;38.15;27.73;;;;;;;14.42;100.00;101362.44;5053679;28;20059;-74
2021/08/24 07:00:39;;;;;;;41.95;27.38;;;;;;;14.43;100.00;101363.28;5123508;27;20027;-75
2021/08/24 07:03:09;;;;;;;35.40;26.42;;;;;;;14.47;100.00;101359.59;5047966;28;20023;-73
2021/08/24 07:05:35;;;;;;;35.80;25.42;;;;;;;14.52;100.00;101367.94;5093865;28;20024;-73
2021/08/24 07:08:00;;;;;;;36.70;25.95;;;;;;;14.56;100.00;101370.97;5111828;28;20042;-73
2021/08/24 07:10:26;;;;;;;36.13;26.20;;;;;;;14.60;100.00;101373.97;5071263;28;20080;-73
2021/08/24 07:12:52;;;;;;;39.28;25.80;;;;;;;14.65;100.00;101376.72;5079993;28;20028;-73
2021/08/24 07:15:18;;;;;;;35.38;24.02;;;;;;;14.68;99.82;101376.97;5076738;28;20031;-73
2021/08/24 07:17:44;;;;;;;37.28;27.25;;;;;;;14.72;100.00;101377.19;5084174;28;20028;-73
2021/08/24 07:20:11;;;;;;;38.50;27.77;;;;;;;14.74;100.00;101374.94;5093436;28;20047;-73
2021/08/24 07:22:37;;;;;;;38.45;27.77;;;;;;;14.78;100.00;101381.56;5072932;28;20484;-73
2021/08/24 07:25:04;;;;;;;38.88;27.08;;;;;;;14.83;100.00;101378.69;5084244;28;20062;-73
2021/08/24 07:27:29;;;;;;;40.58;27.95;;;;;;;14.90;99.45;101376.34;5073323;28;20390;-73
2021/08/24 07:29:55;;;;;;;40.20;26.92;;;;;;;14.92;99.47;101371.28;5082734;28;20028;-73
2021/08/24 07:32:20;;;;;;;35.03;25.23;;;;;;;14.96;99.28;101375.16;5081099;28;20494;-73
2021/08/24 07:34:46;;;;;;;41.53;27.92;;;;;;;14.98;99.52;101384.06;5071686;28;20031;-73
2021/08/24 07:37:11;;;;;;;35.58;27.15;;;;;;;15.01;99.83;101379.81;5051934;28;20070;-73
2021/08/24 07:39:38;;;;;;;37.00;26.88;;;;;;;15.06;99.41;101381.72;5081473;28;20024;-73
2021/08/24 07:42:03;;;;;;;36.20;27.45;;;;;;;15.10;99.31;101382.75;5078209;28;20031;-73
2021/08/24 07:44:33;;;;;;;37.20;25.90;;;;;;;15.13;98.88;101383.00;5078936;28;20031;-73
2021/08/24 07:46:59;;;;;;;33.72;24.73;;;;;;;15.21;98.31;101381.50;5049668;28;20035;-73
2021/08/24 07:49:24;;;;;;;35.83;24.67;;;;;;;15.25;97.98;101374.16;5060565;28;20036;-73
2021/08/24 07:51:50;;;;;;;34.40;25.33;;;;;;;15.28;97.59;101381.94;5061273;28;20036;-73
2021/08/24 07:54:15;;;;;;;33.38;24.08;;;;;;;15.33;97.17;101384.66;5063786;28;20488;-73
2021/08/24 07:56:41;;;;;;;33.53;24.92;;;;;;;15.36;97.17;101378.44;5060095;28;20490;-73
2021/08/24 07:59:06;;;;;;;35.38;24.85;;;;;;;15.44;96.18;101381.69;5069215;28;20031;-73
2021/08/24 08:01:32;;;;;;;29.83;23.10;;;;;;;15.49;96.16;101389.97;5075977;28;20028;-73
2021/08/24 08:03:58;;;;;;;38.67;24.95;;;;;;;15.56;95.77;101379.22;5096982;28;20476;-73
2021/08/24 08:06:23;;;;;;;34.10;25.45;;;;;;;15.61;96.39;101381.94;5086955;28;20023;-73
2021/08/24 08:08:49;;;;;;;36.35;23.10;;;;;;;15.64;95.72;101379.34;5066624;28;20054;-73
2021/08/24 08:11:14;;;;;;;30.80;24.35;;;;;;;15.70;96.15;101388.53;5087460;28;20021;-73
2021/08/24 08:13:40;;;;;;;35.08;24.27;;;;;;;15.78;95.18;101382.22;5059459;28;20027;-73
2021/08/24 08:16:05;;;;;;;33.45;23.73;;;;;;;15.84;95.64;101375.38;5047593;28;20038;-73
2021/08/24 08:18:31;;;;;;;37.03;24.35;;;;;;;15.95;94.30;101378.81;5067362;28;20020;-73
2021/08/24 08:20:57;;;;;;;32.20;22.85;;;;;;;16.00;93.67;101377.91;5080156;28;20376;-73
2021/08/24 08:23:22;;;;;;;34.47;23.05;;;;;;;16.08;93.57;101382.78;5080823;28;20031;-73
2021/08/24 08:25:48;;;;;;;31.17;22.55;;;;;;;16.17;93.32;101378.13;5049237;28;20070;-73
2021/08/24 08:28:13;;;;;;;28.15;21.48;;;;;;;16.23;93.64;101376.88;5064976;28;20029;-73
2021/08/24 08:30:42;;;;;;;31.13;21.70;;;;;;;16.33;93.68;101378.66;5080095;28;20028;-73
2021/08/24 08:33:07;;;;;;;28.83;22.48;;;;;;;16.41;93.01;101382.66;5064200;28;20065;-73
2021/08/24 08:35:33;;;;;;;29.38;21.63;;;;;;;16.47;92.10;101378.63;5080701;28;20633;-73
2021/08/24 08:37:58;;;;;;;29.95;22.73;;;;;;;16.53;91.01;101380.19;5072666;28;20027;-73
2021/08/24 08:40:28;;;;;;;34.22;23.00;;;;;;;16.63;91.07;101376.31;5073295;28;20591;-73
2021/08/24 08:43:22;;;;;;;27.95;21.65;;;;;;;16.74;90.13;101375.78;5070204;28;20032;-73
2021/08/24 08:45:49;;;;;;;33.33;22.75;;;;;;;16.85;90.33;101372.78;5076919;28;20047;-73
2021/08/24 08:48:29;;;;;;;28.90;21.48;;;;;;;17.01;90.23;101367.66;5067103;28;20031;-73
2021/08/24 08:50:57;;;;;;;27.70;21.55;;;;;;;17.07;88.62;101370.00;5072929;28;20034;-73
2021/08/24 08:53:43;;;;;;;33.67;21.95;;;;;;;17.17;88.73;101377.34;5096528;28;20054;-73
2021/08/24 08:56:35;;;;;;;31.40;21.92;;;;;;;17.26;88.16;101372.63;5102358;28;20027;-73
2021/08/24 08:59:26;;;;;;;27.92;21.00;;;;;;;17.38;87.18;101372.06;5071911;28;20028;-73
2021/08/24 09:02:30;;;;;;;27.58;20.63;;;;;;;17.51;88.00;101367.53;5093650;28;20057;-73
2021/08/24 09:04:55;;;;;;;25.42;19.52;;;;;;;17.73;87.24;101370.31;5093127;28;20033;-73
2021/08/24 09:07:36;;;;;;;27.55;19.10;;;;;;;17.93;86.33;101371.78;5096742;28;20078;-73
2021/08/24 09:10:03;;;;;;;29.33;19.80;;;;;;;18.12;85.81;101359.47;5106561;28;20383;-73
2021/08/24 09:12:29;;;;;;;23.63;19.30;;;;;;;18.33;84.70;101366.16;5080746;28;20035;-72
2021/08/24 09:14:55;;;;;;;26.70;19.48;;;;;;;18.49;83.45;101356.09;5102845;28;20035;-73
2021/08/24 09:17:35;;;;;;;26.92;18.98;;;;;;;18.68;82.90;101364.25;5099090;28;20387;-73
2021/08/24 09:20:21;;;;;;;25.92;19.80;;;;;;;18.78;81.38;101365.97;5086133;28;20027;-72
2021/08/24 09:22:47;;;;;;;25.85;17.42;;;;;;;18.86;81.13;101359.50;5096731;28;20036;-72
2021/08/24 09:25:15;;;;;;;29.45;18.20;;;;;;;19.00;81.46;101353.72;5094893;28;20028;-73
2021/08/24 09:27:50;;;;;;;24.02;16.75;;;;;;;19.18;81.03;101361.00;5087509;28;20032;-73
2021/08/24 09:30:16;;;;;;;22.95;17.80;;;;;;;19.35;81.04;101360.16;5084489;28;20095;-72
2021/08/24 09:32:41;;;;;;;25.25;18.80;;;;;;;19.55;79.62;101360.63;5077611;28;20452;-72
2021/08/24 09:35:42;;;;;;;23.13;18.10;;;;;;;19.72;79.51;101363.44;5083818;28;20039;-72
2021/08/24 09:38:13;;;;;;;22.15;16.70;;;;;;;19.98;78.08;101357.72;5079755;28;20055;-72
2021/08/24 09:40:53;;;;;;;24.80;18.13;;;;;;;20.16;77.59;101361.28;5079311;28;20051;-73
2021/08/24 09:43:26;;;;;;;22.95;17.38;;;;;;;20.35;76.85;101357.22;5094170;28;20028;-73
2021/08/24 09:46:00;;;;;;;22.70;16.15;;;;;;;20.56;76.63;101360.97;5075214;28;20162;-73
2021/08/24 09:48:25;;;;;;;19.83;17.65;;;;;;;20.63;75.11;101352.75;5068895;28;20073;-73
2021/08/24 09:50:52;;;;;;;22.77;17.33;;;;;;;20.69;74.48;101357.03;5069968;28;20044;-73
2021/08/24 09:53:38;;;;;;;24.52;17.85;;;;;;;20.80;74.55;101356.63;5067236;28;20049;-73
2021/08/24 09:56:05;;;;;;;19.77;17.23;;;;;;;20.88;73.68;101359.41;5077897;28;20047;-72
2021/08/24 09:58:44;;;;;;;20.60;18.05;;;;;;;20.91;73.71;101361.53;5088416;28;20110;-73
2021/08/24 10:01:16;;;;;;;24.73;18.10;;;;;;;20.91;72.12;101355.06;5062962;28;20100;-74
2021/08/24 10:04:09;;;;;;;22.90;18.47;;;;;;;20.94;72.14;101351.53;5077329;28;20032;-72
2021/08/24 10:06:35;;;;;;;;;;;;;;;21.06;72.44;101357.28;5107156;28;20400;-72
2021/08/24 10:09:36;;;;;;;23.83;18.95;;;;;;;21.20;72.04;101354.13;5068666;28;19965;-72
2021/08/24 10:12:14;;;;;;;23.80;18.02;;;;;;;21.24;71.41;101343.81;5084354;28;20036;-73
2021/08/24 10:14:41;;;;;;;19.63;16.15;;;;;;;21.41;71.90;101342.84;5100305;28;20468;-72
2021/08/24 10:17:22;;;;;;;23.65;17.75;;;;;;;21.36;70.49;101343.84;5102241;28;20102;-73
2021/08/24 10:19:48;;;;;;;23.55;16.80;;;;;;;21.45;70.09;101340.97;5089685;28;20042;-72
2021/08/24 10:22:28;;;;;;;24.77;17.95;;;;;;;21.36;70.55;101341.03;5094978;28;20028;-72
2021/08/24 10:25:08;;;;;;;19.60;16.25;;;;;;;21.41;71.21;101331.56;5076809;28;20032;-72
2021/08/24 10:27:55;;;;;;;18.70;14.90;;;;;;;21.61;71.19;101319.34;5071524;28;20039;-73
2021/08/24 10:30:39;;;;;;;21.20;15.60;;;;;;;21.80;72.72;101324.47;5063801;28;20100;-73
2021/08/24 10:33:05;;;;;;;21.50;17.40;;;;;;;21.84;69.60;101322.59;5107263;28;20495;-73
2021/08/24 10:35:35;;;;;;;22.42;15.23;;;;;;;21.91;69.02;101322.00;5083354;28;20042;-73
2021/08/24 10:38:01;;;;;;;20.85;16.00;;;;;;;21.97;68.81;101317.75;5085996;28;20024;-73
2021/08/24 10:40:41;;;;;;;17.67;15.05;;;;;;;22.01;68.72;101313.06;5082790;28;20078;-73
2021/08/24 10:43:10;;;;;;;22.42;15.05;;;;;;;22.06;68.19;101312.84;5097113;28;20468;-73
2021/08/24 10:45:40;;;;;;;16.98;13.18;;;;;;;22.14;69.23;101298.91;5077685;28;20477;-73
2021/08/24 10:48:09;;;;;;;15.07;12.27;;;;;;;22.30;69.50;101297.06;5059716;28;20019;-73
2021/08/24 10:50:48;;;;;;;16.83;13.43;;;;;;;22.43;68.34;101312.84;5079459;28;20503;-73
2021/08/24 10:53:20;;;;;;;17.45;13.32;;;;;;;22.52;65.98;101295.75;5100929;27;20057;-73
2021/08/24 10:55:48;;;;;;;12.40;11.07;;;;;;;22.78;66.31;101292.47;5130140;27;20095;-73
2021/08/24 10:58:22;;;;;;;15.57;10.93;;;;;;;22.93;66.03;101288.91;5098135;28;20032;-73
2021/08/24 11:00:53;;;;;;;14.68;12.05;;;;;;;22.96;65.20;101285.38;5082737;28;20050;-73
2021/08/24 11:03:22;;;;;;;13.23;10.25;;;;;;;22.96;65.36;101296.72;5094055;28;20037;-73
2021/08/24 11:06:27;;;;;;;12.88;9.55;;;;;;;23.09;63.83;101285.31;5095124;28;20028;-73
2021/08/24 11:09:12;;;;;;;11.52;8.23;;;;;;;23.25;64.57;101291.03;5066087;28;20047;-72
2021/08/24 11:12:01;;;;;;;11.93;8.77;;;;;;;23.24;63.00;101287.41;5115794;27;20126;-72
2021/08/24 11:14:48;;;;;;;14.57;9.20;;;;;;;23.37;63.98;101283.31;5115817;27;20063;-72
2021/08/24 11:17:49;;;;;;;14.43;11.07;;;;;;;23.32;63.35;101292.06;5083195;28;20437;-72
2021/08/24 11:20:23;;;;;;;12.40;10.48;;;;;;;23.35;62.46;101288.50;5100650;28;20036;-72
2021/08/24 11:23:10;;;;;;;11.25;8.93;;;;;;;23.44;62.70;101268.50;5095642;28;20024;-72
2021/08/24 11:25:40;;;;;;;11.57;9.23;;;;;;;23.54;61.59;101272.78;5112777;28;20053;-72